Time;durP1;ratioP1;P1;durP2;ratioP2;P2;SDS_P1;SDS_P2;PMS_P1;PMS_P2;Temp;Humidity;BMP_temperature;BMP_pressure;BME280_temperature;BME280_humidity;BME280_pressure;Samples;Min_cycle;Max_cycle;Signal;HPM_P1;HPM_P2
2022/03/30 00:01:14;;;;;;;27.02;12.32;;;16.40;57.60;;;;;;10126149;28;20390;-68
2022/03/30 00:06:05;;;;;;;25.73;13.00;;;16.40;57.80;;;;;;10132351;28;20051;-69
2022/03/30 00:10:56;;;;;;;22.40;12.68;;;16.30;57.70;;;;;;10138909;28;20055;-68
2022/03/30 00:15:47;;;;;;;25.10;11.88;;;16.30;58.10;;;;;;10131088;28;20036;-68
2022/03/30 00:20:37;;;;;;;27.13;14.02;;;16.30;58.00;;;;;;10131254;28;20024;-67
2022/03/30 00:25:28;;;;;;;33.85;13.57;;;16.30;58.10;;;;;;10133808;28;20044;-69
2022/03/30 00:30:20;;;;;;;29.00;12.80;;;16.30;58.40;;;;;;10113871;28;20106;-67
2022/03/30 00:35:12;;;;;;;25.27;12.55;;;16.30;58.60;;;;;;10133769;28;20041;-67
2022/03/30 00:40:08;;;;;;;27.15;13.70;;;16.30;58.70;;;;;;10133105;28;20039;-67
2022/03/30 00:45:13;;;;;;;23.25;12.18;;;16.30;58.80;;;;;;10132466;28;20136;-67
2022/03/30 00:50:06;;;;;;;30.20;13.52;;;16.30;59.00;;;;;;10134195;28;20027;-68
2022/03/30 00:54:57;;;;;;;24.20;12.45;;;16.20;59.00;;;;;;10129178;28;20279;-67
2022/03/30 00:59:48;;;;;;;29.27;13.00;;;16.30;59.10;;;;;;10135236;28;20052;-66
2022/03/30 01:04:39;;;;;;;26.20;12.43;;;16.20;59.10;;;;;;10119890;28;20425;-67
2022/03/30 01:09:30;;;;;;;29.75;13.80;;;16.20;59.20;;;;;;10135190;28;20036;-67
2022/03/30 01:14:22;;;;;;;34.25;12.82;;;16.20;59.50;;;;;;10129032;28;20052;-68
2022/03/30 01:19:13;;;;;;;26.17;13.05;;;16.00;60.20;;;;;;10132058;28;20052;-67
2022/03/30 01:24:04;;;;;;;30.52;13.55;;;16.00;60.30;;;;;;10135132;28;20029;-69
2022/03/30 01:28:56;;;;;;;24.45;11.93;;;15.90;60.10;;;;;;10128591;28;20477;-68
2022/03/30 01:33:48;;;;;;;29.75;12.15;;;16.00;60.20;;;;;;10127446;28;20052;-68
2022/03/30 01:38:38;;;;;;;27.40;12.40;;;15.90;60.40;;;;;;10133291;28;20541;-68
2022/03/30 01:43:29;;;;;;;25.48;11.93;;;15.70;60.60;;;;;;10129041;28;20025;-68
2022/03/30 01:48:20;;;;;;;21.05;10.68;;;15.60;60.80;;;;;;10134621;28;20340;-68
2022/03/30 01:53:11;;;;;;;21.85;11.23;;;15.70;60.80;;;;;;10133703;28;20051;-68
2022/03/30 01:58:02;;;;;;;18.58;10.55;;;15.70;60.90;;;;;;10116507;28;20056;-67
2022/03/30 02:02:52;;;;;;;20.10;9.30;;;15.60;61.10;;;;;;10133206;28;20029;-67
2022/03/30 02:07:43;;;;;;;17.42;8.27;;;15.60;61.50;;;;;;10132955;28;20426;-68
2022/03/30 02:12:34;;;;;;;17.02;8.95;;;15.50;62.20;;;;;;10131846;28;20470;-68
2022/03/30 02:17:27;;;;;;;16.85;7.43;;;15.20;62.60;;;;;;10132425;28;20093;-68
2022/03/30 02:22:17;;;;;;;14.68;6.88;;;15.10;63.20;;;;;;10132593;28;20462;-68
2022/03/30 02:27:08;;;;;;;24.45;7.75;;;14.90;63.70;;;;;;10129294;28;20028;-68
2022/03/30 02:32:00;;;;;;;14.90;6.22;;;14.70;64.70;;;;;;10130459;28;20044;-67
2022/03/30 02:36:51;;;;;;;14.38;6.82;;;14.40;65.70;;;;;;10132232;28;20510;-69
2022/03/30 02:41:42;;;;;;;17.00;7.43;;;14.20;66.70;;;;;;10131827;28;20039;-67
2022/03/30 02:46:33;;;;;;;11.93;5.70;;;14.10;67.60;;;;;;10131701;28;20248;-68
2022/03/30 02:51:27;;;;;;;13.20;6.07;;;13.80;68.60;;;;;;10133637;28;20051;-68
2022/03/30 02:56:18;;;;;;;22.13;6.50;;;13.50;69.50;;;;;;10131573;28;20133;-68
2022/03/30 03:01:09;;;;;;;12.95;6.55;;;13.50;70.60;;;;;;10114740;28;20599;-68
2022/03/30 03:05:59;;;;;;;17.05;6.72;;;13.30;71.30;;;;;;10130398;28;20036;-68
2022/03/30 03:10:50;;;;;;;12.90;6.63;;;13.10;72.30;;;;;;10129995;28;20027;-69
2022/03/30 03:15:41;;;;;;;13.48;6.22;;;13.10;72.50;;;;;;10133369;28;20062;-68
2022/03/30 03:20:33;;;;;;;11.07;5.50;;;13.00;73.50;;;;;;10118781;28;20032;-68
2022/03/30 03:25:24;;;;;;;13.68;6.95;;;13.00;74.00;;;;;;10133194;28;20051;-68
2022/03/30 03:30:15;;;;;;;10.82;5.03;;;12.90;74.70;;;;;;10108059;28;20048;-67
2022/03/30 03:35:08;;;;;;;14.13;5.55;;;13.00;75.70;;;;;;10132424;28;20052;-67
2022/03/30 03:39:59;;;;;;;9.18;4.95;;;13.00;76.00;;;;;;10130668;28;20465;-66
2022/03/30 03:44:51;;;;;;;13.13;5.28;;;13.10;76.40;;;;;;10138130;28;20131;-68
2022/03/30 03:49:41;;;;;;;10.30;5.80;;;13.10;76.90;;;;;;10138882;28;20107;-68
2022/03/30 03:54:33;;;;;;;8.88;4.50;;;12.90;77.70;;;;;;10138491;28;20127;-67
2022/03/30 03:59:24;;;;;;;10.70;5.05;;;13.00;78.50;;;;;;10136960;28;20024;-67
2022/03/30 04:04:15;;;;;;;10.68;5.28;;;12.90;78.80;;;;;;10137248;28;20035;-68
2022/03/30 04:09:05;;;;;;;10.43;5.13;;;13.00;79.20;;;;;;10131905;28;20115;-68
2022/03/30 04:13:56;;;;;;;11.82;5.20;;;13.00;79.70;;;;;;10131241;28;20161;-67
2022/03/30 04:18:47;;;;;;;13.20;5.47;;;13.00;80.20;;;;;;10136257;28;20661;-67
2022/03/30 04:23:38;;;;;;;11.35;4.78;;;13.20;80.10;;;;;;10126911;28;20102;-68
2022/03/30 04:28:29;;;;;;;17.05;5.70;;;13.30;80.40;;;;;;10128975;28;20112;-68
2022/03/30 04:33:19;;;;;;;11.60;5.00;;;13.40;80.80;;;;;;10130947;28;20028;-70
2022/03/30 04:38:10;;;;;;;11.77;5.25;;;13.40;81.10;;;;;;10133116;28;20036;-67
2022/03/30 04:43:01;;;;;;;10.13;5.38;;;13.40;81.70;;;;;;10137141;28;20035;-67
2022/03/30 04:47:53;;;;;;;11.35;6.35;;;13.30;82.60;;;;;;10134483;28;20122;-68
2022/03/30 04:52:45;;;;;;;12.13;5.57;;;13.30;83.30;;;;;;10113340;28;20032;-68
2022/03/30 04:57:36;;;;;;;15.45;5.45;;;13.10;83.90;;;;;;10135262;28;20068;-67
2022/03/30 05:02:26;;;;;;;11.05;5.65;;;13.10;84.90;;;;;;10132097;28;20024;-68
2022/03/30 05:07:17;;;;;;;15.52;5.38;;;13.10;85.00;;;;;;10134216;28;20481;-68
2022/03/30 05:12:08;;;;;;;8.60;5.20;;;13.10;85.40;;;;;;10132507;28;20494;-68
2022/03/30 05:17:00;;;;;;;14.82;5.70;;;13.10;85.70;;;;;;10133001;28;20584;-67
2022/03/30 05:21:51;;;;;;;10.80;5.47;;;13.20;86.00;;;;;;10134821;28;20031;-68
2022/03/30 05:26:41;;;;;;;11.68;5.13;;;13.10;86.70;;;;;;10128210;28;20380;-67
2022/03/30 05:31:32;;;;;;;9.45;5.40;;;13.00;87.20;;;;;;10113931;28;20044;-68
2022/03/30 05:36:23;;;;;;;10.55;5.75;;;13.00;87.60;;;;;;10134925;28;20055;-68
2022/03/30 05:41:15;;;;;;;11.48;5.93;;;13.00;88.00;;;;;;10133522;28;20051;-68
2022/03/30 05:46:06;;;;;;;15.25;6.43;;;12.90;88.60;;;;;;10136949;28;20056;-68
2022/03/30 05:50:58;;;;;;;14.85;6.45;;;13.00;88.90;;;;;;10130829;28;20553;-68
2022/03/30 05:55:49;;;;;;;14.55;5.63;;;13.00;89.70;;;;;;10129047;28;20039;-68
2022/03/30 06:00:40;;;;;;;13.15;5.43;;;13.10;89.80;;;;;;10121067;28;20037;-68
2022/03/30 06:05:31;;;;;;;10.98;5.22;;;13.00;90.10;;;;;;10130837;28;20131;-69
2022/03/30 06:10:21;;;;;;;11.88;6.15;;;13.00;90.40;;;;;;10127932;28;20131;-69
2022/03/30 06:15:12;;;;;;;11.25;5.55;;;12.90;90.70;;;;;;10138610;28;20036;-68
2022/03/30 06:20:04;;;;;;;15.95;5.43;;;12.90;90.90;;;;;;10107249;28;20037;-69
2022/03/30 06:24:55;;;;;;;14.60;6.80;;;12.90;91.00;;;;;;10130558;28;20376;-67
2022/03/30 06:29:46;;;;;;;12.23;5.70;;;12.80;91.10;;;;;;10113030;28;20055;-67
2022/03/30 06:34:37;;;;;;;11.45;5.53;;;12.80;91.30;;;;;;10123471;28;20032;-69
2022/03/30 06:39:30;;;;;;;12.45;4.88;;;12.70;91.50;;;;;;10109938;28;20033;-66
2022/03/30 06:44:21;;;;;;;12.10;6.05;;;12.70;91.80;;;;;;10106649;28;20044;-65
2022/03/30 06:49:12;;;;;;;13.50;5.20;;;12.60;91.90;;;;;;10108285;28;20067;-65
2022/03/30 06:54:03;;;;;;;11.35;5.18;;;12.70;92.00;;;;;;10116552;28;20059;-67
2022/03/30 06:58:54;;;;;;;11.63;5.95;;;12.70;92.00;;;;;;10115457;28;20069;-66
2022/03/30 07:03:45;;;;;;;12.68;5.38;;;12.80;92.00;;;;;;10102151;28;20394;-67
2022/03/30 07:13:45;;;;;;;16.20;6.13;;;12.90;92.40;;;;;;10126289;28;20083;-70
2022/03/30 07:18:36;;;;;;;18.85;6.07;;;13.00;92.40;;;;;;10117011;28;20035;-70
2022/03/30 07:23:26;;;;;;;13.07;5.15;;;13.00;92.50;;;;;;10135421;28;20090;-69
2022/03/30 07:28:26;;;;;;;13.93;5.57;;;13.10;92.50;;;;;;10141075;28;20242;-74
2022/03/30 07:33:17;;;;;;;9.30;4.95;;;13.30;92.70;;;;;;10116547;28;20040;-71
2022/03/30 07:38:08;;;;;;;13.70;4.95;;;13.30;92.70;;;;;;10121983;28;20066;-74
2022/03/30 07:42:59;;;;;;;10.13;5.38;;;13.30;93.10;;;;;;10126454;28;20189;-79
2022/03/30 07:47:55;;;;;;;10.20;4.90;;;13.50;92.90;;;;;;10133054;28;20049;-69
2022/03/30 07:52:46;;;;;;;11.82;5.88;;;13.60;92.90;;;;;;10145800;28;20064;-76
2022/03/30 07:57:39;;;;;;;16.20;5.90;;;13.70;93.00;;;;;;10114481;28;20289;-75
2022/03/30 08:02:30;;;;;;;11.25;5.38;;;13.70;93.10;;;;;;10137527;28;20032;-68
2022/03/30 08:07:22;;;;;;;13.85;5.78;;;13.70;93.10;;;;;;10140617;28;20108;-68
2022/03/30 08:12:14;;;;;;;12.05;6.05;;;13.60;93.30;;;;;;10142372;28;20036;-73
2022/03/30 08:17:05;;;;;;;17.75;6.13;;;13.40;93.60;;;;;;10143199;28;20234;-73
2022/03/30 08:27:09;;;;;;;13.75;5.60;;;13.60;93.70;;;;;;10133450;28;20055;-71
2022/03/30 08:32:03;;;;;;;14.27;5.93;;;13.80;93.50;;;;;;10111202;28;20199;-71
2022/03/30 08:36:54;;;;;;;15.27;6.15;;;13.90;93.50;;;;;;10119436;28;20020;-70
2022/03/30 08:41:46;;;;;;;17.13;7.38;;;13.90;93.50;;;;;;10119546;28;20025;-71
2022/03/30 08:46:38;;;;;;;12.43;5.63;;;14.00;93.50;;;;;;10138373;28;20075;-69
2022/03/30 08:51:31;;;;;;;13.15;5.50;;;14.20;93.40;;;;;;10128509;28;20033;-68
2022/03/30 08:56:23;;;;;;;15.20;6.50;;;14.20;93.30;;;;;;10125318;28;20314;-73
2022/03/30 09:01:14;;;;;;;11.15;5.40;;;14.30;93.50;;;;;;10130472;28;20156;-68
2022/03/30 09:06:05;;;;;;;11.82;5.53;;;14.30;93.50;;;;;;10132124;28;20051;-73
2022/03/30 09:10:59;;;;;;;13.70;6.78;;;14.30;93.60;;;;;;10134275;28;20125;-77
2022/03/30 09:15:51;;;;;;;15.32;7.38;;;14.40;93.70;;;;;;10133853;28;20028;-67
2022/03/30 09:20:46;;;;;;;13.18;5.88;;;14.30;93.70;;;;;;10126729;28;20517;-74
2022/03/30 09:25:44;;;;;;;12.63;4.87;;;14.10;93.80;;;;;;10133046;28;20111;-76
2022/03/30 09:30:35;;;;;;;15.27;6.15;;;14.00;94.10;;;;;;10127551;28;20127;-70
2022/03/30 09:35:33;;;;;;;14.68;6.15;;;14.20;94.20;;;;;;10136599;28;20115;-75
2022/03/30 09:40:41;;;;;;;12.57;5.70;;;14.30;93.70;;;;;;10132251;28;20095;-72
2022/03/30 09:45:33;;;;;;;11.88;6.60;;;14.20;93.80;;;;;;10133855;28;20187;-72
2022/03/30 09:50:31;;;;;;;12.43;6.20;;;14.30;93.80;;;;;;10130544;28;20028;-75
2022/03/30 09:55:22;;;;;;;9.80;5.38;;;14.20;93.90;;;;;;10141325;28;20499;-71
2022/03/30 10:00:15;;;;;;;16.98;6.85;;;14.30;93.80;;;;;;10110187;28;20097;-75
2022/03/30 10:05:09;;;;;;;7.88;5.25;;;14.40;93.70;;;;;;10120715;28;20060;-73
2022/03/30 10:10:01;;;;;;;12.25;5.55;;;14.30;93.70;;;;;;10137791;28;20039;-78
2022/03/30 10:14:55;;;;;;;13.98;5.57;;;14.30;93.60;;;;;;10138395;28;20182;-76
2022/03/30 10:19:46;;;;;;;9.35;5.28;;;14.10;93.70;;;;;;10133938;28;20466;-68
2022/03/30 10:24:47;;;;;;;17.05;5.05;;;14.10;93.60;;;;;;10128339;28;20031;-70
2022/03/30 10:29:51;;;;;;;13.65;5.88;;;14.00;93.50;;;;;;10126836;28;20351;-66
2022/03/30 10:35:20;;;;;;;16.77;7.88;;;13.90;93.70;;;;;;10128173;28;20064;-69
2022/03/30 10:40:11;;;;;;;14.55;7.72;;;14.30;93.50;;;;;;10108141;28;20041;-73
2022/03/30 10:45:03;;;;;;;18.65;8.00;;;14.50;93.30;;;;;;10139833;28;20083;-65
2022/03/30 10:50:00;;;;;;;14.65;7.45;;;14.70;93.30;;;;;;10127387;28;20083;-68
2022/03/30 10:54:55;;;;;;;16.38;8.82;;;14.90;93.30;;;;;;10108456;28;20082;-68
2022/03/30 11:00:05;;;;;;;14.57;8.55;;;15.00;93.10;;;;;;10132589;28;20196;-69
2022/03/30 11:05:12;;;;;;;18.30;9.82;;;15.30;93.00;;;;;;10130345;28;20068;-66
2022/03/30 11:10:23;;;;;;;15.95;9.75;;;15.40;92.80;;;;;;10129854;28;20350;-67
2022/03/30 11:15:13;;;;;;;18.23;11.30;;;15.20;92.70;;;;;;10125266;28;20076;-67
2022/03/30 11:20:06;;;;;;;21.13;11.18;;;14.80;93.00;;;;;;10127638;28;20102;-67
2022/03/30 11:25:10;;;;;;;18.95;10.88;;;14.90;93.00;;;;;;10126491;28;20025;-66
2022/03/30 11:30:13;;;;;;;29.65;14.98;;;14.80;92.90;;;;;;10105946;28;20028;-69
2022/03/30 11:35:10;;;;;;;23.27;12.77;;;14.90;92.50;;;;;;10113137;28;20059;-67
2022/03/30 11:40:07;;;;;;;19.47;11.00;;;15.10;92.40;;;;;;10128051;28;20612;-67
2022/03/30 11:45:15;;;;;;;21.70;11.57;;;14.60;93.20;;;;;;10130837;28;20287;-66
2022/03/30 11:50:06;;;;;;;20.77;11.27;;;14.00;94.30;;;;;;10128360;28;20063;-68
2022/03/30 11:54:58;;;;;;;17.30;10.68;;;13.90;94.50;;;;;;10125702;28;20039;-68
2022/03/30 12:00:02;;;;;;;18.30;10.40;;;14.00;94.40;;;;;;10124542;28;20025;-68
2022/03/30 12:04:54;;;;;;;18.23;10.57;;;14.00;94.70;;;;;;10128630;28;20101;-67
2022/03/30 12:09:53;;;;;;;12.95;9.13;;;14.40;94.30;;;;;;10142341;28;20017;-75
2022/03/30 12:14:56;;;;;;;17.27;9.88;;;14.70;94.10;;;;;;10134315;28;20132;-76
2022/03/30 12:19:51;;;;;;;14.57;8.90;;;14.90;93.90;;;;;;10121509;28;20021;-76
2022/03/30 12:24:42;;;;;;;14.63;8.95;;;15.10;93.70;;;;;;10139484;28;20035;-73
2022/03/30 12:29:32;;;;;;;17.02;9.43;;;15.60;93.30;;;;;;10114969;28;20024;-72
2022/03/30 12:34:24;;;;;;;15.05;8.93;;;16.00;92.80;;;;;;10118759;28;20036;-72
2022/03/30 12:39:24;;;;;;;15.65;8.85;;;15.90;93.10;;;;;;10132780;28;20149;-75
2022/03/30 12:44:19;;;;;;;13.48;8.90;;;16.20;92.90;;;;;;10133738;28;20680;-73
2022/03/30 12:49:10;;;;;;;13.10;8.52;;;15.50;92.90;;;;;;10126652;28;20618;-70
2022/03/30 12:54:01;;;;;;;16.35;8.25;;;14.80;93.50;;;;;;10132482;28;20471;-69
2022/03/30 12:58:56;;;;;;;14.45;7.82;;;14.50;93.60;;;;;;10110120;28;20021;-75
2022/03/30 13:03:47;;;;;;;11.85;7.05;;;14.40;93.30;;;;;;10121446;28;20139;-77
2022/03/30 13:08:38;;;;;;;12.57;7.10;;;14.20;93.50;;;;;;10122011;28;20056;-70
2022/03/30 13:13:30;;;;;;;13.20;6.60;;;13.90;93.40;;;;;;10133407;28;20028;-70
2022/03/30 13:18:21;;;;;;;11.38;6.88;;;13.60;93.50;;;;;;10119102;28;20063;-75
2022/03/30 13:23:16;;;;;;;12.10;6.82;;;13.60;93.60;;;;;;10106456;28;20024;-77
2022/03/30 13:28:19;;;;;;;11.20;6.22;;;13.60;93.60;;;;;;10141909;28;20043;-76
2022/03/30 13:33:10;;;;;;;11.35;5.70;;;13.60;93.90;;;;;;10126814;28;20037;-75
2022/03/30 13:38:01;;;;;;;9.48;6.15;;;13.50;94.10;;;;;;10127467;28;20017;-70
2022/03/30 13:42:53;;;;;;;11.13;5.68;;;13.60;93.90;;;;;;10131006;28;20033;-73
2022/03/30 13:47:44;;;;;;;10.55;6.38;;;13.80;94.00;;;;;;10124391;28;20275;-72
2022/03/30 13:52:34;;;;;;;9.45;6.35;;;13.20;94.50;;;;;;10140276;28;20033;-70
2022/03/30 13:57:29;;;;;;;10.80;6.68;;;13.30;94.70;;;;;;10112421;28;20067;-78
2022/03/30 14:02:19;;;;;;;11.20;6.13;;;13.00;94.60;;;;;;10130037;28;20021;-73
2022/03/30 14:07:10;;;;;;;13.63;6.75;;;13.20;94.50;;;;;;10133129;28;20024;-67
2022/03/30 14:12:01;;;;;;;9.45;5.70;;;13.00;94.70;;;;;;10125395;28;20025;-68
2022/03/30 14:16:52;;;;;;;12.73;7.38;;;12.90;94.50;;;;;;10127759;28;20029;-67
2022/03/30 14:21:43;;;;;;;14.27;7.18;;;12.90;94.40;;;;;;10118223;28;20043;-73
2022/03/30 14:26:38;;;;;;;11.50;6.93;;;13.00;94.30;;;;;;10125183;28;20048;-74
2022/03/30 14:31:29;;;;;;;;;;;13.00;94.30;;;;;;10114591;28;20047;-72
2022/03/30 14:36:26;;;;;;;15.93;8.82;;;13.10;94.00;;;;;;10133461;28;19913;-75
2022/03/30 14:41:16;;;;;;;14.15;7.55;;;13.10;93.90;;;;;;10132901;28;20494;-73
2022/03/30 14:46:07;;;;;;;15.00;7.63;;;13.20;93.90;;;;;;10123843;28;20041;-67
2022/03/30 14:50:58;;;;;;;16.52;9.07;;;13.20;93.90;;;;;;10130242;28;20029;-71
2022/03/30 14:55:49;;;;;;;17.80;8.68;;;13.10;93.90;;;;;;10117851;28;20242;-70
2022/03/30 15:00:40;;;;;;;14.95;8.80;;;12.90;94.00;;;;;;10138290;28;20532;-75
2022/03/30 15:05:34;;;;;;;17.83;9.15;;;12.90;94.30;;;;;;10111488;28;20021;-76
2022/03/30 15:10:25;;;;;;;18.55;8.80;;;12.90;94.10;;;;;;10105097;28;20525;-72
2022/03/30 15:15:16;;;;;;;15.38;8.40;;;12.90;94.20;;;;;;10109998;28;20053;-74
2022/03/30 15:20:14;;;;;;;18.05;9.55;;;13.00;94.30;;;;;;10124681;28;20028;-77
2022/03/30 15:25:07;;;;;;;15.50;8.43;;;12.80;94.30;;;;;;10129511;28;20108;-75
2022/03/30 15:29:58;;;;;;;19.77;10.55;;;13.10;94.10;;;;;;10131725;28;20028;-74
2022/03/30 15:34:52;;;;;;;19.55;9.98;;;13.30;93.90;;;;;;10134218;28;20090;-73
2022/03/30 15:39:47;;;;;;;16.67;9.32;;;13.40;93.90;;;;;;10139036;28;20078;-70
2022/03/30 15:44:41;;;;;;;20.25;10.23;;;13.50;93.90;;;;;;10119444;28;20048;-75
2022/03/30 15:49:32;;;;;;;21.33;9.88;;;13.30;94.00;;;;;;10136466;28;20028;-72
2022/03/30 15:54:22;;;;;;;17.63;9.32;;;13.40;94.00;;;;;;10140807;28;20501;-72
2022/03/30 15:59:14;;;;;;;14.80;8.30;;;13.20;94.10;;;;;;10131858;28;20134;-69
2022/03/30 16:04:04;;;;;;;19.90;10.75;;;13.10;94.20;;;;;;10134640;28;20028;-67
2022/03/30 16:08:58;;;;;;;17.38;9.73;;;13.00;94.20;;;;;;10131975;28;20020;-69
2022/03/30 16:13:49;;;;;;;19.08;9.48;;;12.90;94.20;;;;;;10126356;28;20037;-72
2022/03/30 16:18:39;;;;;;;17.45;9.05;;;12.80;94.20;;;;;;10135009;28;20036;-67
2022/03/30 16:23:31;;;;;;;21.85;9.27;;;13.00;94.10;;;;;;10135966;28;20090;-65
2022/03/30 16:28:23;;;;;;;20.13;9.32;;;12.80;94.50;;;;;;10106955;28;20086;-66
2022/03/30 16:33:14;;;;;;;16.38;8.45;;;12.40;94.70;;;;;;10139036;28;20426;-65
2022/03/30 16:38:04;;;;;;;18.83;9.63;;;12.30;95.00;;;;;;10140438;28;20017;-65
2022/03/30 16:42:57;;;;;;;18.42;10.07;;;12.40;94.90;;;;;;10137655;28;20111;-66
2022/03/30 16:47:48;;;;;;;24.02;12.00;;;12.40;94.80;;;;;;10115510;28;20517;-66
2022/03/30 16:52:40;;;;;;;19.75;10.10;;;12.50;94.60;;;;;;10131872;28;20044;-66
2022/03/30 16:57:30;;;;;;;24.60;11.40;;;12.50;94.70;;;;;;10111366;28;20410;-65
2022/03/30 17:02:21;;;;;;;19.15;10.65;;;12.40;94.60;;;;;;10135798;28;20033;-65
2022/03/30 17:07:12;;;;;;;17.77;9.73;;;12.40;94.70;;;;;;10143054;28;20275;-65
2022/03/30 17:12:03;;;;;;;20.70;9.68;;;12.20;95.10;;;;;;10141066;28;20264;-65
2022/03/30 17:16:53;;;;;;;23.55;10.15;;;12.20;95.10;;;;;;10118960;28;20525;-64
2022/03/30 17:21:49;;;;;;;18.50;9.60;;;12.20;95.20;;;;;;10134882;28;20024;-64
2022/03/30 17:26:39;;;;;;;18.67;9.90;;;12.00;95.40;;;;;;10123899;28;20038;-65
2022/03/30 17:31:31;;;;;;;21.85;10.27;;;11.90;95.60;;;;;;10136082;28;20032;-66
2022/03/30 17:36:22;;;;;;;19.73;9.60;;;11.90;95.70;;;;;;10113008;28;20429;-65
2022/03/30 17:41:15;;;;;;;20.77;11.02;;;11.90;95.70;;;;;;10134879;28;20028;-65
2022/03/30 17:46:06;;;;;;;21.25;10.68;;;12.00;95.50;;;;;;10121280;28;20434;-65
2022/03/30 17:56:06;;;;;;;20.67;10.00;;;11.80;95.80;;;;;;10134959;28;20102;-66
2022/03/30 18:01:02;;;;;;;21.45;10.55;;;11.60;95.80;;;;;;10135111;28;20025;-66
2022/03/30 18:05:52;;;;;;;23.00;11.23;;;11.70;95.90;;;;;;10132929;28;20025;-65
2022/03/30 18:10:43;;;;;;;23.13;10.50;;;11.60;96.10;;;;;;10133244;28;20032;-64
2022/03/30 18:15:34;;;;;;;21.35;11.13;;;11.60;96.00;;;;;;10134445;28;20041;-65
2022/03/30 18:20:25;;;;;;;22.77;11.52;;;11.60;96.00;;;;;;10098284;28;20037;-65
2022/03/30 18:25:16;;;;;;;23.88;12.35;;;11.60;96.00;;;;;;10136914;28;20048;-64
2022/03/30 18:30:08;;;;;;;23.92;11.15;;;11.70;96.00;;;;;;10136445;28;20260;-65
2022/03/30 18:35:00;;;;;;;28.20;12.27;;;11.60;96.20;;;;;;10133510;28;20518;-65
2022/03/30 18:39:51;;;;;;;23.92;11.40;;;11.60;96.10;;;;;;10140618;28;20035;-65
2022/03/30 18:44:41;;;;;;;25.75;13.48;;;11.50;96.20;;;;;;10135198;28;20156;-66
2022/03/30 18:49:32;;;;;;;20.38;11.02;;;11.60;96.20;;;;;;10132203;28;20067;-64
2022/03/30 18:54:23;;;;;;;26.83;12.85;;;11.60;96.30;;;;;;10135790;28;20040;-65
2022/03/30 18:59:14;;;;;;;30.50;13.70;;;11.60;96.30;;;;;;10132951;28;20076;-67
2022/03/30 19:04:05;;;;;;;27.00;13.20;;;11.70;96.00;;;;;;10132012;28;20124;-64
2022/03/30 19:08:56;;;;;;;25.73;13.00;;;11.70;95.90;;;;;;10136380;28;20112;-65
2022/03/30 19:13:46;;;;;;;27.02;11.73;;;11.70;96.00;;;;;;10119638;28;20105;-65
2022/03/30 19:18:38;;;;;;;24.08;12.70;;;11.60;96.00;;;;;;10135520;28;20422;-65
2022/03/30 19:23:30;;;;;;;26.70;12.70;;;11.60;96.10;;;;;;10132373;28;20035;-65
2022/03/30 19:28:23;;;;;;;25.92;12.80;;;11.60;95.90;;;;;;10132277;28;20071;-66
2022/03/30 19:33:15;;;;;;;26.42;13.88;;;11.70;96.00;;;;;;10131063;28;20094;-66
2022/03/30 19:38:06;;;;;;;28.52;12.43;;;11.60;96.00;;;;;;10134863;28;20033;-65
2022/03/30 19:42:56;;;;;;;25.77;13.27;;;11.60;96.00;;;;;;10130699;28;20028;-65
2022/03/30 19:47:49;;;;;;;23.38;12.65;;;11.50;96.20;;;;;;10132915;28;20049;-65
2022/03/30 19:52:40;;;;;;;25.60;12.75;;;11.40;96.30;;;;;;10130156;28;20181;-65
2022/03/30 19:57:31;;;;;;;27.23;13.20;;;11.50;96.20;;;;;;10135953;28;20394;-65
2022/03/30 20:02:22;;;;;;;26.13;12.32;;;11.40;96.20;;;;;;10129674;28;20033;-65
2022/03/30 20:07:13;;;;;;;25.83;12.35;;;11.50;96.10;;;;;;10131967;28;20039;-66
2022/03/30 20:12:04;;;;;;;31.83;14.85;;;11.10;96.10;;;;;;10131265;28;20498;-66
2022/03/30 20:16:56;;;;;;;25.40;13.88;;;11.50;96.00;;;;;;10131072;28;20028;-65
2022/03/30 20:21:46;;;;;;;28.70;15.10;;;11.40;96.10;;;;;;10132059;28;20024;-65
2022/03/30 20:26:37;;;;;;;26.75;13.98;;;11.40;96.00;;;;;;10135908;28;20128;-65
2022/03/30 20:31:28;;;;;;;29.40;15.25;;;11.40;96.10;;;;;;10138355;28;20024;-66
2022/03/30 20:36:19;;;;;;;28.60;14.68;;;11.40;96.20;;;;;;10139341;28;20236;-64
2022/03/30 20:41:11;;;;;;;26.55;15.35;;;11.30;96.30;;;;;;10136179;28;20035;-66
2022/03/30 20:46:01;;;;;;;30.30;14.05;;;11.20;96.50;;;;;;10134175;28;20422;-65
2022/03/30 20:50:55;;;;;;;27.88;15.13;;;11.20;96.40;;;;;;10136834;28;20025;-66
2022/03/30 20:55:46;;;;;;;29.00;15.23;;;11.20;96.40;;;;;;10130141;28;20060;-65
2022/03/30 21:00:38;;;;;;;33.10;15.18;;;11.20;96.40;;;;;;10135204;28;20482;-65
2022/03/30 21:05:29;;;;;;;29.90;16.10;;;11.30;96.30;;;;;;10130973;28;20032;-65
2022/03/30 21:10:20;;;;;;;28.80;13.73;;;11.30;96.10;;;;;;10118032;28;20639;-66
2022/03/30 21:15:11;;;;;;;35.10;16.25;;;11.20;96.30;;;;;;10137168;28;20040;-64
2022/03/30 21:20:03;;;;;;;33.92;16.58;;;11.30;96.20;;;;;;10128939;28;20431;-64
2022/03/30 21:24:54;;;;;;;34.20;16.88;;;11.30;96.10;;;;;;10132930;28;20048;-67
2022/03/30 21:29:45;;;;;;;33.88;15.02;;;11.10;96.10;;;;;;10134964;28;20474;-67
2022/03/30 21:34:36;;;;;;;34.38;16.30;;;11.10;96.20;;;;;;10135188;28;20040;-66
2022/03/30 21:39:27;;;;;;;34.25;16.83;;;11.10;96.10;;;;;;10135300;28;20426;-67
2022/03/30 21:44:18;;;;;;;30.70;15.75;;;11.10;96.10;;;;;;10132998;28;20048;-67
2022/03/30 21:49:09;;;;;;;35.00;17.52;;;11.20;96.20;;;;;;10135895;28;20028;-66
2022/03/30 21:54:00;;;;;;;30.52;15.13;;;11.20;96.20;;;;;;10133327;28;20037;-67
2022/03/30 21:58:51;;;;;;;34.92;16.55;;;11.10;96.10;;;;;;10131321;28;20036;-68
2022/03/30 22:03:42;;;;;;;41.63;18.00;;;11.10;96.20;;;;;;10115784;28;20066;-68
2022/03/30 22:08:32;;;;;;;26.67;13.88;;;11.00;96.20;;;;;;10135051;28;20524;-68
2022/03/30 22:13:28;;;;;;;28.27;13.82;;;11.00;96.50;;;;;;10133333;28;20037;-68
2022/03/30 22:18:19;;;;;;;26.90;13.45;;;11.00;96.60;;;;;;10132844;28;20040;-66
2022/03/30 22:23:10;;;;;;;27.75;12.80;;;10.90;96.70;;;;;;10132363;28;20037;-67
2022/03/30 22:28:01;;;;;;;23.10;13.00;;;11.00;96.60;;;;;;10132801;28;20501;-68
2022/03/30 22:38:08;;;;;;;26.77;13.23;;;11.00;96.60;;;;;;10132470;28;20481;-67
2022/03/30 22:42:59;;;;;;;27.50;13.00;;;10.90;96.50;;;;;;10131401;28;20445;-67
2022/03/30 22:47:51;;;;;;;25.55;13.50;;;10.90;96.70;;;;;;10130276;28;20170;-64
2022/03/30 22:52:43;;;;;;;27.75;14.13;;;10.70;96.80;;;;;;10132191;28;20063;-65
2022/03/30 22:57:34;;;;;;;30.00;13.75;;;10.80;96.70;;;;;;10134129;28;20324;-64
2022/03/30 23:02:24;;;;;;;26.48;12.90;;;10.90;96.50;;;;;;10130941;28;20111;-65
2022/03/30 23:12:24;;;;;;;34.53;17.05;;;10.80;96.30;;;;;;10132453;28;20083;-68
2022/03/30 23:17:15;;;;;;;25.00;12.45;;;10.60;96.50;;;;;;10132792;28;20082;-68
2022/03/30 23:22:06;;;;;;;24.90;13.00;;;10.60;96.70;;;;;;10132586;28;20028;-66
2022/03/30 23:26:58;;;;;;;22.77;10.77;;;10.70;96.70;;;;;;10129743;28;20444;-68
2022/03/30 23:31:48;;;;;;;25.48;12.07;;;10.70;96.70;;;;;;10110508;28;20132;-67
2022/03/30 23:36:39;;;;;;;27.15;12.85;;;10.70;96.70;;;;;;10111926;28;20036;-69
2022/03/30 23:41:29;;;;;;;23.13;11.15;;;10.80;96.60;;;;;;10130959;28;20047;-68
2022/03/30 23:46:20;;;;;;;28.70;13.50;;;10.90;96.40;;;;;;10130741;28;20340;-68
2022/03/30 23:51:11;;;;;;;25.75;11.57;;;10.80;96.30;;;;;;10105079;28;20106;-67
2022/03/30 23:56:02;;;;;;;25.92;12.45;;;10.60;96.70;;;;;;10129922;28;20033;-68
